createdAt,value
2023-01-09T08:11:09.541Z,945.0575
2023-01-09T08:12:33.912Z,945.0646
2023-01-09T08:13:34.950Z,945.0865
2023-01-09T08:14:37.310Z,945.0912
2023-01-09T08:15:37.899Z,945.1538
2023-01-09T08:16:37.660Z,945.2019
2023-01-09T08:17:41.312Z,945.2186
2023-01-09T08:18:41.646Z,945.2395
2023-01-09T08:19:40.637Z,945.2390
2023-01-09T08:20:42.072Z,945.2640
2023-01-09T08:21:40.322Z,945.2581
2023-01-09T08:22:42.845Z,945.2833
2023-01-09T08:23:45.593Z,945.3052
2023-01-09T08:24:45.522Z,945.3449
2023-01-09T08:25:46.089Z,945.3000
2023-01-09T08:26:46.844Z,945.2905
2023-01-09T08:27:51.655Z,945.2938
2023-01-09T08:28:53.398Z,945.2836
2023-01-09T08:29:48.586Z,945.2879
2023-01-09T08:30:49.844Z,945.2605
2023-01-09T08:31:50.092Z,945.2790
2023-01-09T08:32:49.206Z,945.2581
2023-01-09T08:33:50.959Z,945.2661
2023-01-09T08:34:51.825Z,945.2758
2023-01-09T08:35:51.872Z,945.2395
2023-01-09T08:36:52.030Z,945.1935
2023-01-09T08:37:55.312Z,945.2391
2023-01-09T08:38:54.870Z,945.2732
2023-01-09T08:39:54.591Z,945.2285
2023-01-09T08:40:53.984Z,945.2025
2023-01-09T08:41:57.372Z,945.2057
2023-01-09T08:42:55.621Z,945.2130
2023-01-09T08:43:57.463Z,945.2435
2023-01-09T08:44:59.524Z,945.2395
2023-01-09T08:46:04.210Z,945.2735
2023-01-09T08:47:04.329Z,945.2943
2023-01-09T08:48:08.810Z,945.3134
2023-01-09T08:49:05.156Z,945.2831
2023-01-09T08:50:05.904Z,945.3409
2023-01-09T08:51:05.784Z,945.3086
2023-01-09T08:52:08.340Z,945.3307
2023-01-09T08:53:09.463Z,945.3576
2023-01-09T08:54:09.531Z,945.3547
2023-01-09T08:55:11.195Z,945.3205
2023-01-09T08:56:09.351Z,945.3537
2023-01-09T08:57:10.893Z,945.3442
2023-01-09T08:58:10.791Z,945.3424
2023-01-09T12:43:46.840Z,945.6725
2023-01-09T12:45:09.038Z,945.6387
2023-01-09T12:46:09.903Z,945.6370
2023-01-09T12:47:10.787Z,945.6630
2023-01-09T12:48:11.652Z,945.6710
2023-01-09T12:49:12.361Z,945.6682
2023-01-09T12:50:13.595Z,945.6463
2023-01-09T12:51:14.373Z,945.6384
2023-01-09T12:52:16.171Z,945.6588
2023-01-09T12:53:15.385Z,945.6429
2023-01-09T12:54:16.036Z,945.6500
2023-01-09T12:55:16.668Z,945.6500
2023-01-09T12:56:17.384Z,945.6370
2023-01-09T12:57:18.063Z,945.6202
2023-01-09T12:58:18.684Z,945.5881
2023-01-09T12:59:19.373Z,945.5854
2023-01-09T13:00:20.021Z,945.5928
2023-01-09T13:01:20.735Z,945.5779
2023-01-09T13:02:21.553Z,945.5640
2023-01-09T13:03:22.360Z,945.6082
2023-01-09T13:04:23.285Z,945.6025
2023-01-09T13:05:24.270Z,945.5961
2023-01-09T13:06:25.139Z,945.5817
2023-01-09T13:07:25.801Z,945.5602
2023-01-09T13:08:26.497Z,945.5775
2023-01-09T13:09:27.205Z,945.5895
2023-01-09T13:10:28.187Z,945.6337
2023-01-09T13:11:28.897Z,945.6700
2023-01-09T13:12:29.735Z,945.6537
2023-01-09T13:13:30.496Z,945.6407
2023-01-09T13:14:31.279Z,945.6384
2023-01-09T13:15:32.113Z,945.6407
2023-01-09T13:16:32.996Z,945.6379
2023-01-09T13:17:33.986Z,945.6128
2023-01-09T13:18:34.833Z,945.6244
2023-01-09T13:19:35.862Z,945.5956
2023-01-09T13:20:36.886Z,945.5672
2023-01-09T13:21:37.892Z,945.5458
2023-01-09T13:22:38.738Z,945.5314
2023-01-09T13:23:39.507Z,945.5068
2023-01-09T13:24:40.222Z,945.4972
2023-01-09T13:25:41.027Z,945.4946
2023-01-09T13:26:41.710Z,945.4886
2023-01-09T13:27:42.525Z,945.4886
2023-01-09T13:28:43.430Z,945.4958
2023-01-09T13:29:43.729Z,945.4969
2023-01-09T13:30:44.480Z,945.4869
2023-01-09T13:31:45.372Z,945.4937
2023-01-09T13:32:46.240Z,945.4830
2023-01-09T13:33:46.943Z,945.4851
2023-01-09T13:34:47.915Z,945.4770
2023-01-09T13:35:48.629Z,945.4432
2023-01-09T13:36:49.369Z,945.4489
2023-01-09T13:37:50.493Z,945.4340
2023-01-09T13:38:51.472Z,945.4256
2023-01-09T13:39:52.431Z,945.4153
2023-01-09T13:40:53.057Z,945.3870
2023-01-09T13:41:53.851Z,945.3660
2023-01-09T13:42:54.617Z,945.3958
2023-01-09T13:43:55.444Z,945.3674
2023-01-09T13:44:56.450Z,945.3381
2023-01-09T13:45:57.424Z,945.3307
2023-01-09T13:46:58.335Z,945.3051
2023-01-09T13:47:58.939Z,945.3298
2023-01-09T13:48:59.715Z,945.3083
2023-01-09T13:50:00.662Z,945.3232
2023-01-09T13:51:01.573Z,945.3265
2023-01-09T13:52:02.380Z,945.3340
2023-01-09T13:53:03.154Z,945.3414
2023-01-09T13:54:04.048Z,945.3716
2023-01-09T13:55:04.924Z,945.3623
2023-01-09T13:56:05.811Z,945.3935
2023-01-09T13:57:06.823Z,945.4070
2023-01-09T13:58:07.498Z,945.4186
2023-01-09T13:59:08.412Z,945.4354
2023-01-09T14:00:09.410Z,945.4386
2023-01-09T14:01:10.339Z,945.4460
2023-01-09T14:02:11.454Z,945.4572
2023-01-09T14:03:12.381Z,945.4779
2023-01-09T14:04:14.758Z,945.4897
2023-01-09T14:05:14.476Z,945.5295
2023-01-09T14:06:15.271Z,945.5319
2023-01-09T14:07:16.586Z,945.5416
2023-01-09T14:08:18.293Z,945.5291
2023-01-09T14:09:18.036Z,945.5591
2023-01-09T14:10:19.012Z,945.5877
2023-01-09T14:11:18.892Z,945.5816
2023-01-09T14:12:20.026Z,945.5975
2023-01-09T14:13:20.894Z,945.6053
2023-01-09T14:14:21.771Z,945.5956
2023-01-09T14:15:22.720Z,945.5938
2023-01-09T14:16:23.696Z,945.6044
2023-01-09T14:17:24.736Z,945.5598
2023-01-09T14:18:25.972Z,945.5570
2023-01-09T14:19:26.996Z,945.5793
2023-01-09T14:20:28.005Z,945.5840
2023-01-09T14:21:28.896Z,945.5746
2023-01-09T14:22:29.621Z,945.5919
2023-01-09T14:23:50.241Z,945.6403
2023-01-09T14:24:30.778Z,945.6777
2023-01-09T14:25:31.985Z,945.7198
2023-01-09T14:26:34.210Z,945.7960
2023-01-09T14:27:32.816Z,945.8428
2023-01-09T14:28:33.911Z,945.8328
2023-01-09T14:29:34.945Z,945.8840
2023-01-09T14:30:36.057Z,945.9454
2023-01-09T14:31:36.929Z,945.9735
2023-01-09T14:32:37.829Z,945.9647
2023-01-09T14:33:38.794Z,945.9667
2023-01-09T14:34:39.686Z,945.9879
2023-01-09T14:35:43.164Z,946.0344
2023-01-09T14:36:41.332Z,946.0903
2023-01-09T14:37:43.211Z,946.1200
2023-01-09T14:38:43.554Z,946.1281
2023-01-09T14:39:43.313Z,946.1619
2023-01-09T14:40:48.758Z,946.1549
2023-01-09T14:41:44.118Z,946.1646
2023-01-09T14:42:44.989Z,946.1619
2023-01-09T14:43:46.199Z,946.1725
2023-01-09T14:44:47.177Z,946.1972
2023-01-09T14:45:49.989Z,946.2135
2023-01-09T14:46:48.481Z,946.2419
2023-01-09T14:47:49.317Z,946.2428
2023-01-09T14:48:50.493Z,946.2409
2023-01-09T14:49:51.543Z,946.2423
2023-01-09T14:50:52.381Z,946.2391
2023-01-09T14:51:53.382Z,946.2391
2023-01-09T14:52:54.224Z,946.2586
2023-01-09T14:53:55.232Z,946.3060
2023-01-09T14:54:56.573Z,946.3614
2023-01-09T14:55:57.509Z,946.3865
2023-01-09T14:56:58.321Z,946.3800
2023-01-09T14:57:59.161Z,946.3949
2023-01-09T14:58:59.995Z,946.4970
2023-01-09T15:00:01.297Z,946.5240
2023-01-09T15:01:02.186Z,946.5272
2023-01-09T15:02:03.142Z,946.5453
2023-01-09T15:03:04.451Z,946.5970
